首页
METAR-TAF:

METAR-TAF

机场 :

克麥羅沃, 俄罗斯

纬度: 55-19-48N, 经度: 086-04-48E, 海拔: 260米

当前天气观测

该预报发布于31分钟前的12:00 UTC
风速6节,风向西
温度 24°C
湿度 65%
气压 1006 hPa
能见度10公里或以上
散云层高于3600英尺, 积雨云.

METAR: UNEE 231200Z 26003MPS 9999 SCT036CB 24/17 Q1006 R23/CLRD60 NOSIG RMK QFE732

时间: 19:31 (12:31 UTC)

预报

该预报发布于1小时和31分钟前的11:00 UTC
预报有效从23日的 12点(UTC)到 24日的 12点(UTC)
风速6节,风向西南,有时为16节阵风
能見度: 8000
多云层高于4000英尺, 积雨云.
短暂存在
从 23日的 12点(UTC)到 23日的 16点(UTC)
多云层高于1600英尺, 积雨云.
雷暴, 小雨
短暂存在
从 23日的 17点(UTC)到 24日的 03点(UTC)
能見度: 0300
多云层高于100英尺
多云层高于1600英尺, 积雨云.
雾,

TAF: UNEE 231100Z 2312/2412 22003G08MPS 8000 BKN040CB TX28/2409Z TN14/2322Z TEMPO 2312/2316 -TSRA BKN016CB TEMPO 2317/2403 0300 FG BKN001 BKN016CB

超过4000个机场的气象观测和天气预报(METAR&TAF报告)。

可查询的气象台以黄色和红色小点在地图上表示。

将鼠标移到小点上方,可查看气象台名称。

然后点击查看天气观测和预报。

如需切换地图:点击带黑十字的绿色按钮放大地图;点击带横线的绿色按钮缩小地图;或者点击绿色箭头查看邻近地区的地图。


METAR-TAF: